Weather observations for the past three days for
St. Inigoes, Webster Field, Naval Electronic Systems Engineering Activity
Metric (Imperial)
Date Time (edt) Wind (kph) Vis. (km) Weather Sky Cond. Temperature (ºC) Relative Humidity Wind Chill (°C) Heat Index (°C) Pressure Precipitation (cm)
Air Dwpt 6 hour altimeter (cm) sea level (mb) 1 hr 3 hr 6 hr
Max. Min.
03 23:53 Calm 0.00 NULL NULL 28.3 25 82% 33 76 1013.0
03 22:53 Calm 14.48 A Few Clouds FEW110 26.1 25 94% 28 75.97 1012.7
03 21:53 Calm 14.48 Fair CLR 25.6 25 97% 27 75.97 1012.8
03 20:53 Calm 16.09 Fair CLR 26.7 25.6 94% 30 76.05 1013.7
03 19:53 S 6 16.09 Fair CLR 27.8 24.4 32.2 27.8 82% 32 76 1013.0
03 18:53 Calm 16.09 Fair CLR 30.6 24.4 70% 36 75.97 1012.7
03 17:53 W 9 16.09 Fair CLR 31.7 23.9 63% 37 75.97 1012.8
03 13:53 W 9 16.09 Fair CLR 30.6 25.6 30.6 23.9 75% 38 76.12 1014.9
03 12:53 SW 9 16.09 Fair CLR 30 25 75% 36 76.17 1015.4
03 11:53 Vrbl 9 16.09 Fair CLR 28.3 24.4 79% 33 76.23 1016.2
03 10:53 SE 13 16.09 Mostly Cloudy FEW012 BKN018 28.3 25 82% 33 76.2 1015.8
03 09:53 E 9 16.09 Mostly Cloudy BKN013 BKN023 27.2 24.4 85% 31 76.23 1016.2
03 07:53 E 6 16.09 Partly Cloudy SCT013 23.9 23.3 23.9 21.7 96% 23 76.25 1016.6
03 06:53 Calm 16.09 Overcast OVC013 23.3 22.2 94% 76.23 1016.1
03 05:53 Calm 16.09 A Few Clouds FEW090 21.7 21.7 100% 76.15 1015.2
03 04:53 Calm 16.09 A Few Clouds FEW090 22 22 100% 76.17 1001.5
03 03:53 Calm 16.09 Mostly Cloudy BKN095 22.2 21.7 97% 76.17 1015.3
03 02:53 Calm 16.09 Mostly Cloudy FEW021 BKN100 21.7 21.7 100% 76.15 1015.3
03 01:53 NE 6 16.09 A Few Clouds FEW100 21.7 21.1 22.8 21.7 96% 76.2 1015.8
02 23:53 E 6 16.09 Mostly Cloudy BKN100 22.8 21.7 94% 76.23 1016.2
02 22:53 E 6 16.09 Fair CLR 22.2 21.1 94% 76.2 1015.7
02 20:53 Calm 16.09 Fair CLR 22.2 21.7 97% 76.25 1016.4
02 19:53 E 6 16.09 Fair CLR 22.8 21.7 31.1 22.8 94% 76.2 1015.8 0.1
02 18:53 Calm 16.09 Fair CLR 23.3 22.2 94% 76.2 1015.9
02 17:53 Calm 16.09 Fair CLR 24.4 21.7 85% 25 76.23 1016.0
02 15:53 E 11 16.09 Fair CLR 24.4 21.1 82% 25 76.3 1017.3 0.1
02 13:53 NE 13 16.09 Fair CLR 30 23.3 30 26.1 67% 34 76.33 1017.6
02 12:53 E 11 16.09 A Few Clouds FEW024 28.9 23.3 72% 33 76.33 1017.4
02 11:53 E 13 16.09 A Few Clouds FEW019 28.3 23.3 74% 32 76.3 1017.2
02 10:53 E 15 16.09 Partly Cloudy SCT016 27.8 22.8 74% 31 76.33 1017.5
02 09:53 NE 13 16.09 Overcast OVC014 26.7 22.8 79% 29 76.3 1017.1
02 08:53 NE 9 16.09 Fair CLR 26.7 23.9 85% 29 76.23 1016.3
02 06:53 Calm 12.87 Fair CLR 23.9 23.3 96% 23 76.2 1015.8
02 05:53 Calm 14.48 Fair CLR 23.3 22.8 97% 76.15 1015.3
02 04:53 E 6 16.09 Fair CLR 25 23.3 90% 26 76.15 1015.3
02 03:53 E 11 16.09 Fair CLR 25.6 23.3 87% 27 76.12 1014.9
02 02:53 Calm 16.09 Fair CLR 25 22.8 88% 26 76.12 1014.9
02 01:53 Calm 0.00 Fair CLR 24.4 23.3 28.9 24.4 94% 24 76.12 1014.8
02 00:53 Calm 16.09 Fair CLR 25 23.9 94% 26 76.12 1014.8
01 23:53 Calm 16.09 Partly Cloudy SCT070 26.7 24.4 87% 30 76.1 1014.5
01 22:53 S 6 16.09 Fair CLR 27.2 24.4 85% 31 76.07 1014.0
01 21:53 S 9 16.09 Fair CLR 28.3 25 82% 33 76.07 1014.0
01 20:53 S 9 16.09 Fair CLR 28.3 25 82% 33 76.02 1013.4
01 17:53 S 7 16.09 Fair CLR 31.1 21.7 57% 34 76.02 1013.6
01 16:53 SW 11 16.09 Fair CLR 31.7 21.7 55% 35 76.05 1013.8
01 15:53 SW 11 16.09 Fair CLR 32.8 22.8 56% 38 76.07 1014.2
01 14:53 SW 11 16.09 Fair CLR 33.3 22.2 52% 38 76.12 1014.7
01 12:53 W 9 16.09 Fair CLR 31.7 22.2 57% 36 76.15 1015.2
01 11:53 SW 11 16.09 Fair CLR 30.6 23.3 65% 35 76.17 1015.6
01 10:53 W 9 16.09 Fair CLR 29 24 74% 34 76.23 1016.1
01 09:53 W 7 0.00 Fair CLR 27.8 23.9 79% 32 76.23 1016.2
01 08:53 W 7 0.00 Fair CLR 27.2 23.3 79% 30 76.25 1016.5
01 07:53 W 6 0.00 Fair CLR 25.6 22.8 25.6 22.8 85% 27 76.25 1016.4
01 06:53 W 9 16.09 Fair CLR 24.4 22.2 88% 25 76.2 1015.8
01 04:53 W 7 16.09 Fair CLR 24.4 22.2 88% 25 76.2 1015.7
01 03:53 W 7 16.09 Fair CLR 24.4 22.2 88% 25 76.2 1015.9
01 02:53 SW 11 16.09 A Few Clouds FEW110 24.4 22.8 91% 24 76.25 1016.3
01 01:53 Calm 14.48 Overcast OVC120 23.9 23.3 26.1 23.9 96% 23 76.25 1016.6
Date Time (edt) Wind (kph) Vis. (km) Weather Sky Cond. Air Dwpt Max. Min. Relative Humidity Wind Chill (°C) Heat Index (°C) altimeter (cm) sea level (mb) 1 hr 3 hr 6 hr
6 hour
Temperature (ºC) Pressure Precipitation (cm)